sensor_id;sensor_type;location;lat;lon;timestamp;P1;durP1;ratioP1;P2;durP2;ratioP2
59872;SDS011;50750;51.636;4.948;2023-02-15T00:01:44;15.60;;;11.10;;
59872;SDS011;50750;51.636;4.948;2023-02-15T00:04:14;16.70;;;11.50;;
59872;SDS011;50750;51.636;4.948;2023-02-15T00:06:42;14.50;;;10.40;;
59872;SDS011;50750;51.636;4.948;2023-02-15T00:09:08;16.40;;;11.40;;
59872;SDS011;50750;51.636;4.948;2023-02-15T00:11:35;15.60;;;10.90;;
59872;SDS011;50750;51.636;4.948;2023-02-15T00:14:18;16.30;;;10.90;;
59872;SDS011;50750;51.636;4.948;2023-02-15T00:16:45;14.30;;;9.90;;
59872;SDS011;50750;51.636;4.948;2023-02-15T00:19:12;16.60;;;10.50;;
59872;SDS011;50750;51.636;4.948;2023-02-15T00:21:40;16.60;;;10.60;;
59872;SDS011;50750;51.636;4.948;2023-02-15T00:24:07;15.00;;;10.40;;
59872;SDS011;50750;51.636;4.948;2023-02-15T00:26:34;15.20;;;10.50;;
59872;SDS011;50750;51.636;4.948;2023-02-15T00:29:01;16.20;;;10.50;;
59872;SDS011;50750;51.636;4.948;2023-02-15T00:31:28;15.30;;;10.60;;
59872;SDS011;50750;51.636;4.948;2023-02-15T00:36:48;15.10;;;10.30;;
59872;SDS011;50750;51.636;4.948;2023-02-15T00:39:14;15.20;;;10.50;;
59872;SDS011;50750;51.636;4.948;2023-02-15T00:41:41;13.40;;;9.60;;
59872;SDS011;50750;51.636;4.948;2023-02-15T00:44:07;13.90;;;9.90;;
59872;SDS011;50750;51.636;4.948;2023-02-15T00:46:33;15.20;;;10.60;;
59872;SDS011;50750;51.636;4.948;2023-02-15T00:49:00;13.30;;;9.50;;
59872;SDS011;50750;51.636;4.948;2023-02-15T00:51:27;14.60;;;10.10;;
59872;SDS011;50750;51.636;4.948;2023-02-15T00:53:53;15.30;;;10.60;;
59872;SDS011;50750;51.636;4.948;2023-02-15T00:56:19;13.50;;;9.60;;
59872;SDS011;50750;51.636;4.948;2023-02-15T00:58:45;13.50;;;9.60;;
59872;SDS011;50750;51.636;4.948;2023-02-15T01:01:12;14.00;;;9.70;;
59872;SDS011;50750;51.636;4.948;2023-02-15T01:03:40;14.30;;;9.60;;
59872;SDS011;50750;51.636;4.948;2023-02-15T01:06:09;13.90;;;9.40;;
59872;SDS011;50750;51.636;4.948;2023-02-15T01:08:36;13.80;;;9.80;;
59872;SDS011;50750;51.636;4.948;2023-02-15T01:11:09;13.40;;;9.50;;
59872;SDS011;50750;51.636;4.948;2023-02-15T01:13:40;14.00;;;9.40;;
59872;SDS011;50750;51.636;4.948;2023-02-15T01:16:07;13.30;;;9.70;;
59872;SDS011;50750;51.636;4.948;2023-02-15T01:18:34;14.90;;;10.10;;
59872;SDS011;50750;51.636;4.948;2023-02-15T01:21:08;13.10;;;9.20;;
59872;SDS011;50750;51.636;4.948;2023-02-15T01:23:35;13.70;;;9.50;;
59872;SDS011;50750;51.636;4.948;2023-02-15T01:26:01;15.90;;;10.10;;
59872;SDS011;50750;51.636;4.948;2023-02-15T01:28:27;13.40;;;9.20;;
59872;SDS011;50750;51.636;4.948;2023-02-15T01:30:53;14.00;;;9.80;;
59872;SDS011;50750;51.636;4.948;2023-02-15T01:33:19;13.10;;;9.20;;
59872;SDS011;50750;51.636;4.948;2023-02-15T01:35:45;14.30;;;9.90;;
59872;SDS011;50750;51.636;4.948;2023-02-15T01:38:12;16.30;;;10.10;;
59872;SDS011;50750;51.636;4.948;2023-02-15T01:40:39;17.50;;;10.70;;
59872;SDS011;50750;51.636;4.948;2023-02-15T01:43:09;14.60;;;9.60;;
59872;SDS011;50750;51.636;4.948;2023-02-15T01:45:37;14.50;;;9.80;;
59872;SDS011;50750;51.636;4.948;2023-02-15T01:50:50;13.40;;;9.40;;
59872;SDS011;50750;51.636;4.948;2023-02-15T01:56:12;13.40;;;8.40;;
59872;SDS011;50750;51.636;4.948;2023-02-15T01:58:42;14.60;;;8.70;;
59872;SDS011;50750;51.636;4.948;2023-02-15T02:01:09;12.90;;;9.00;;
59872;SDS011;50750;51.636;4.948;2023-02-15T02:03:42;15.40;;;9.60;;
59872;SDS011;50750;51.636;4.948;2023-02-15T02:06:09;12.50;;;9.60;;
59872;SDS011;50750;51.636;4.948;2023-02-15T02:08:36;11.70;;;8.90;;
59872;SDS011;50750;51.636;4.948;2023-02-15T02:11:09;13.50;;;9.00;;
59872;SDS011;50750;51.636;4.948;2023-02-15T02:13:36;13.40;;;9.00;;
59872;SDS011;50750;51.636;4.948;2023-02-15T02:18:54;13.60;;;9.60;;
59872;SDS011;50750;51.636;4.948;2023-02-15T02:26:57;12.60;;;9.20;;
59872;SDS011;50750;51.636;4.948;2023-02-15T02:35:19;13.90;;;8.60;;
59872;SDS011;50750;51.636;4.948;2023-02-15T02:37:55;13.60;;;8.90;;
59872;SDS011;50750;51.636;4.948;2023-02-15T02:43:20;12.10;;;8.40;;
59872;SDS011;50750;51.636;4.948;2023-02-15T02:45:54;12.90;;;8.80;;
59872;SDS011;50750;51.636;4.948;2023-02-15T02:48:25;13.10;;;8.40;;
59872;SDS011;50750;51.636;4.948;2023-02-15T02:50:56;12.30;;;9.10;;
59872;SDS011;50750;51.636;4.948;2023-02-15T02:53:21;11.70;;;8.70;;
59872;SDS011;50750;51.636;4.948;2023-02-15T02:55:52;13.20;;;9.00;;
59872;SDS011;50750;51.636;4.948;2023-02-15T02:58:28;12.80;;;8.50;;
59872;SDS011;50750;51.636;4.948;2023-02-15T03:01:11;13.80;;;9.00;;
59872;SDS011;50750;51.636;4.948;2023-02-15T03:03:44;11.90;;;8.40;;
59872;SDS011;50750;51.636;4.948;2023-02-15T03:06:15;13.00;;;9.50;;
59872;SDS011;50750;51.636;4.948;2023-02-15T03:08:51;14.10;;;9.30;;
59872;SDS011;50750;51.636;4.948;2023-02-15T03:11:26;14.90;;;9.80;;
59872;SDS011;50750;51.636;4.948;2023-02-15T03:13:52;13.80;;;9.10;;
59872;SDS011;50750;51.636;4.948;2023-02-15T03:16:18;13.20;;;8.90;;
59872;SDS011;50750;51.636;4.948;2023-02-15T03:19:12;14.00;;;9.40;;
59872;SDS011;50750;51.636;4.948;2023-02-15T03:21:48;13.50;;;9.30;;
59872;SDS011;50750;51.636;4.948;2023-02-15T03:24:28;14.80;;;9.70;;
59872;SDS011;50750;51.636;4.948;2023-02-15T03:27:02;14.50;;;9.70;;
59872;SDS011;50750;51.636;4.948;2023-02-15T03:29:32;13.20;;;8.90;;
59872;SDS011;50750;51.636;4.948;2023-02-15T03:32:00;12.90;;;9.00;;
59872;SDS011;50750;51.636;4.948;2023-02-15T03:34:30;13.10;;;9.60;;
59872;SDS011;50750;51.636;4.948;2023-02-15T03:37:09;15.10;;;9.60;;
59872;SDS011;50750;51.636;4.948;2023-02-15T03:39:42;14.30;;;9.40;;
59872;SDS011;50750;51.636;4.948;2023-02-15T03:42:15;12.90;;;9.30;;
59872;SDS011;50750;51.636;4.948;2023-02-15T03:47:17;13.60;;;9.30;;
59872;SDS011;50750;51.636;4.948;2023-02-15T03:52:29;12.00;;;8.40;;
59872;SDS011;50750;51.636;4.948;2023-02-15T03:54:57;12.70;;;9.10;;
59872;SDS011;50750;51.636;4.948;2023-02-15T03:57:25;13.30;;;9.10;;
59872;SDS011;50750;51.636;4.948;2023-02-15T04:00:18;14.00;;;10.00;;
59872;SDS011;50750;51.636;4.948;2023-02-15T04:05:40;15.10;;;10.00;;
59872;SDS011;50750;51.636;4.948;2023-02-15T04:10:36;13.80;;;9.20;;
59872;SDS011;50750;51.636;4.948;2023-02-15T04:13:20;13.20;;;9.20;;
59872;SDS011;50750;51.636;4.948;2023-02-15T04:15:55;15.10;;;10.20;;
59872;SDS011;50750;51.636;4.948;2023-02-15T04:21:14;14.10;;;9.50;;
59872;SDS011;50750;51.636;4.948;2023-02-15T04:23:58;16.40;;;9.90;;
59872;SDS011;50750;51.636;4.948;2023-02-15T04:26:43;14.40;;;9.50;;
59872;SDS011;50750;51.636;4.948;2023-02-15T04:29:09;14.30;;;9.50;;
59872;SDS011;50750;51.636;4.948;2023-02-15T04:31:35;16.70;;;10.40;;
59872;SDS011;50750;51.636;4.948;2023-02-15T04:34:00;15.90;;;9.80;;
59872;SDS011;50750;51.636;4.948;2023-02-15T04:36:26;13.20;;;10.10;;
59872;SDS011;50750;51.636;4.948;2023-02-15T04:38:52;14.40;;;9.80;;
59872;SDS011;50750;51.636;4.948;2023-02-15T04:41:18;14.00;;;9.90;;
59872;SDS011;50750;51.636;4.948;2023-02-15T04:43:44;14.80;;;10.10;;
59872;SDS011;50750;51.636;4.948;2023-02-15T04:46:09;14.30;;;9.50;;
59872;SDS011;50750;51.636;4.948;2023-02-15T04:48:35;14.30;;;9.60;;
59872;SDS011;50750;51.636;4.948;2023-02-15T04:51:05;13.50;;;9.90;;
59872;SDS011;50750;51.636;4.948;2023-02-15T04:53:32;14.70;;;10.40;;
59872;SDS011;50750;51.636;4.948;2023-02-15T04:55:58;18.50;;;10.00;;
59872;SDS011;50750;51.636;4.948;2023-02-15T04:58:24;13.80;;;9.50;;
59872;SDS011;50750;51.636;4.948;2023-02-15T05:00:54;12.80;;;9.30;;
59872;SDS011;50750;51.636;4.948;2023-02-15T05:03:20;13.70;;;9.40;;
59872;SDS011;50750;51.636;4.948;2023-02-15T05:05:46;14.50;;;10.30;;
59872;SDS011;50750;51.636;4.948;2023-02-15T05:08:12;13.40;;;9.90;;
59872;SDS011;50750;51.636;4.948;2023-02-15T05:10:38;13.10;;;9.70;;
59872;SDS011;50750;51.636;4.948;2023-02-15T05:13:04;13.50;;;9.60;;
59872;SDS011;50750;51.636;4.948;2023-02-15T05:15:30;13.50;;;9.20;;
59872;SDS011;50750;51.636;4.948;2023-02-15T05:17:56;13.10;;;9.00;;
59872;SDS011;50750;51.636;4.948;2023-02-15T05:20:22;13.00;;;9.60;;
59872;SDS011;50750;51.636;4.948;2023-02-15T05:22:54;14.00;;;9.30;;
59872;SDS011;50750;51.636;4.948;2023-02-15T05:25:20;11.80;;;9.30;;
59872;SDS011;50750;51.636;4.948;2023-02-15T05:28:10;12.80;;;9.50;;
59872;SDS011;50750;51.636;4.948;2023-02-15T05:30:48;13.50;;;9.60;;
59872;SDS011;50750;51.636;4.948;2023-02-15T05:33:16;11.70;;;9.20;;
59872;SDS011;50750;51.636;4.948;2023-02-15T05:35:43;11.30;;;8.90;;
59872;SDS011;50750;51.636;4.948;2023-02-15T05:38:09;13.20;;;8.70;;
59872;SDS011;50750;51.636;4.948;2023-02-15T05:40:34;13.10;;;9.70;;
59872;SDS011;50750;51.636;4.948;2023-02-15T05:43:00;13.70;;;9.00;;
59872;SDS011;50750;51.636;4.948;2023-02-15T05:45:26;11.50;;;8.70;;
59872;SDS011;50750;51.636;4.948;2023-02-15T05:47:52;12.90;;;9.00;;
59872;SDS011;50750;51.636;4.948;2023-02-15T05:50:18;13.60;;;9.60;;
59872;SDS011;50750;51.636;4.948;2023-02-15T05:52:44;14.50;;;9.30;;
59872;SDS011;50750;51.636;4.948;2023-02-15T05:55:10;13.10;;;9.30;;
59872;SDS011;50750;51.636;4.948;2023-02-15T05:57:36;12.40;;;8.60;;
59872;SDS011;50750;51.636;4.948;2023-02-15T06:00:03;11.60;;;9.20;;
59872;SDS011;50750;51.636;4.948;2023-02-15T06:02:33;13.10;;;9.40;;
59872;SDS011;50750;51.636;4.948;2023-02-15T06:05:00;13.00;;;9.30;;
59872;SDS011;50750;51.636;4.948;2023-02-15T06:07:26;11.30;;;9.40;;
59872;SDS011;50750;51.636;4.948;2023-02-15T06:09:52;15.50;;;10.30;;
59872;SDS011;50750;51.636;4.948;2023-02-15T06:12:18;14.00;;;9.40;;
59872;SDS011;50750;51.636;4.948;2023-02-15T06:14:44;12.70;;;9.70;;
59872;SDS011;50750;51.636;4.948;2023-02-15T06:17:09;14.70;;;9.40;;
59872;SDS011;50750;51.636;4.948;2023-02-15T06:19:35;12.70;;;9.10;;
59872;SDS011;50750;51.636;4.948;2023-02-15T06:22:01;14.50;;;10.10;;
59872;SDS011;50750;51.636;4.948;2023-02-15T06:24:27;13.30;;;9.80;;
59872;SDS011;50750;51.636;4.948;2023-02-15T06:26:53;13.30;;;9.40;;
59872;SDS011;50750;51.636;4.948;2023-02-15T06:29:19;14.70;;;9.70;;
59872;SDS011;50750;51.636;4.948;2023-02-15T06:31:44;15.20;;;10.00;;
59872;SDS011;50750;51.636;4.948;2023-02-15T06:34:10;13.50;;;10.20;;
59872;SDS011;50750;51.636;4.948;2023-02-15T06:36:36;13.70;;;10.10;;
59872;SDS011;50750;51.636;4.948;2023-02-15T06:39:05;15.50;;;10.20;;
59872;SDS011;50750;51.636;4.948;2023-02-15T06:41:31;13.60;;;10.10;;
59872;SDS011;50750;51.636;4.948;2023-02-15T06:43:57;14.20;;;10.10;;
59872;SDS011;50750;51.636;4.948;2023-02-15T06:46:23;14.50;;;10.00;;
59872;SDS011;50750;51.636;4.948;2023-02-15T06:48:49;16.70;;;10.20;;
59872;SDS011;50750;51.636;4.948;2023-02-15T06:51:15;14.10;;;9.90;;
59872;SDS011;50750;51.636;4.948;2023-02-15T06:53:41;16.70;;;10.80;;
59872;SDS011;50750;51.636;4.948;2023-02-15T06:56:08;16.80;;;10.70;;
59872;SDS011;50750;51.636;4.948;2023-02-15T06:58:36;14.90;;;10.50;;
59872;SDS011;50750;51.636;4.948;2023-02-15T07:01:03;15.70;;;10.60;;
59872;SDS011;50750;51.636;4.948;2023-02-15T07:03:29;14.00;;;10.20;;
59872;SDS011;50750;51.636;4.948;2023-02-15T07:05:56;15.00;;;10.20;;
59872;SDS011;50750;51.636;4.948;2023-02-15T07:08:24;16.80;;;10.10;;
59872;SDS011;50750;51.636;4.948;2023-02-15T07:10:51;14.20;;;10.60;;
59872;SDS011;50750;51.636;4.948;2023-02-15T07:13:18;14.30;;;10.10;;
59872;SDS011;50750;51.636;4.948;2023-02-15T07:15:45;16.40;;;10.50;;
59872;SDS011;50750;51.636;4.948;2023-02-15T07:18:12;15.60;;;10.80;;
59872;SDS011;50750;51.636;4.948;2023-02-15T07:20:38;16.10;;;10.90;;
59872;SDS011;50750;51.636;4.948;2023-02-15T07:23:07;14.80;;;10.30;;
59872;SDS011;50750;51.636;4.948;2023-02-15T07:25:34;15.80;;;11.00;;
59872;SDS011;50750;51.636;4.948;2023-02-15T07:28:01;16.10;;;10.60;;
59872;SDS011;50750;51.636;4.948;2023-02-15T07:30:28;26.20;;;16.30;;
59872;SDS011;50750;51.636;4.948;2023-02-15T07:32:55;27.00;;;18.70;;
59872;SDS011;50750;51.636;4.948;2023-02-15T07:35:47;27.80;;;17.70;;
59872;SDS011;50750;51.636;4.948;2023-02-15T07:38:18;28.60;;;18.50;;
59872;SDS011;50750;51.636;4.948;2023-02-15T07:40:47;27.10;;;18.50;;
59872;SDS011;50750;51.636;4.948;2023-02-15T07:43:13;26.00;;;17.30;;
59872;SDS011;50750;51.636;4.948;2023-02-15T07:45:39;25.90;;;17.20;;
59872;SDS011;50750;51.636;4.948;2023-02-15T07:48:06;24.80;;;17.20;;
59872;SDS011;50750;51.636;4.948;2023-02-15T07:50:33;24.50;;;17.50;;
59872;SDS011;50750;51.636;4.948;2023-02-15T07:53:02;23.80;;;16.10;;
59872;SDS011;50750;51.636;4.948;2023-02-15T07:55:29;26.90;;;16.80;;
59872;SDS011;50750;51.636;4.948;2023-02-15T07:57:55;23.60;;;16.40;;
59872;SDS011;50750;51.636;4.948;2023-02-15T08:00:22;23.50;;;15.60;;
59872;SDS011;50750;51.636;4.948;2023-02-15T08:02:51;24.30;;;16.40;;
59872;SDS011;50750;51.636;4.948;2023-02-15T08:05:37;22.80;;;16.00;;
59872;SDS011;50750;51.636;4.948;2023-02-15T08:08:04;24.20;;;16.80;;
59872;SDS011;50750;51.636;4.948;2023-02-15T08:10:31;24.10;;;16.40;;
59872;SDS011;50750;51.636;4.948;2023-02-15T08:13:15;22.70;;;15.30;;
59872;SDS011;50750;51.636;4.948;2023-02-15T08:15:51;23.20;;;15.50;;
59872;SDS011;50750;51.636;4.948;2023-02-15T08:18:17;24.80;;;16.30;;
59872;SDS011;50750;51.636;4.948;2023-02-15T08:20:48;24.70;;;16.00;;
59872;SDS011;50750;51.636;4.948;2023-02-15T08:23:15;22.40;;;15.20;;
59872;SDS011;50750;51.636;4.948;2023-02-15T08:25:41;22.90;;;15.40;;
59872;SDS011;50750;51.636;4.948;2023-02-15T08:28:07;20.50;;;15.50;;
59872;SDS011;50750;51.636;4.948;2023-02-15T08:30:32;22.00;;;14.80;;
59872;SDS011;50750;51.636;4.948;2023-02-15T08:32:58;21.40;;;15.90;;
59872;SDS011;50750;51.636;4.948;2023-02-15T08:35:24;21.30;;;15.00;;
59872;SDS011;50750;51.636;4.948;2023-02-15T08:37:51;22.40;;;15.20;;
59872;SDS011;50750;51.636;4.948;2023-02-15T08:40:17;20.20;;;14.00;;
59872;SDS011;50750;51.636;4.948;2023-02-15T08:42:42;26.40;;;15.70;;
59872;SDS011;50750;51.636;4.948;2023-02-15T08:45:08;20.30;;;14.70;;
59872;SDS011;50750;51.636;4.948;2023-02-15T08:47:34;20.10;;;14.00;;
59872;SDS011;50750;51.636;4.948;2023-02-15T08:50:00;23.90;;;15.20;;
59872;SDS011;50750;51.636;4.948;2023-02-15T08:52:26;21.00;;;14.50;;
59872;SDS011;50750;51.636;4.948;2023-02-15T08:54:52;23.70;;;14.80;;
59872;SDS011;50750;51.636;4.948;2023-02-15T08:57:18;21.00;;;14.10;;
59872;SDS011;50750;51.636;4.948;2023-02-15T08:59:43;21.70;;;14.80;;
59872;SDS011;50750;51.636;4.948;2023-02-15T09:02:09;21.40;;;14.70;;
59872;SDS011;50750;51.636;4.948;2023-02-15T09:04:35;21.70;;;14.10;;
59872;SDS011;50750;51.636;4.948;2023-02-15T09:07:01;19.80;;;13.50;;
59872;SDS011;50750;51.636;4.948;2023-02-15T09:09:29;22.50;;;14.30;;
59872;SDS011;50750;51.636;4.948;2023-02-15T09:11:57;19.70;;;13.50;;
59872;SDS011;50750;51.636;4.948;2023-02-15T09:14:23;18.80;;;13.80;;
59872;SDS011;50750;51.636;4.948;2023-02-15T09:16:51;18.90;;;13.20;;
59872;SDS011;50750;51.636;4.948;2023-02-15T09:19:19;19.00;;;13.60;;
59872;SDS011;50750;51.636;4.948;2023-02-15T09:21:47;19.60;;;13.50;;
59872;SDS011;50750;51.636;4.948;2023-02-15T09:24:14;18.70;;;13.80;;
59872;SDS011;50750;51.636;4.948;2023-02-15T09:26:44;21.10;;;13.40;;
59872;SDS011;50750;51.636;4.948;2023-02-15T09:31:38;19.40;;;12.30;;
59872;SDS011;50750;51.636;4.948;2023-02-15T09:34:10;19.40;;;13.00;;
59872;SDS011;50750;51.636;4.948;2023-02-15T09:36:38;20.20;;;13.20;;
59872;SDS011;50750;51.636;4.948;2023-02-15T09:39:09;20.30;;;13.60;;
59872;SDS011;50750;51.636;4.948;2023-02-15T09:44:42;19.60;;;13.40;;
59872;SDS011;50750;51.636;4.948;2023-02-15T09:49:57;17.50;;;12.00;;
59872;SDS011;50750;51.636;4.948;2023-02-15T10:00:34;16.80;;;10.70;;
59872;SDS011;50750;51.636;4.948;2023-02-15T10:06:21;15.50;;;11.20;;
59872;SDS011;50750;51.636;4.948;2023-02-15T10:09:11;15.50;;;11.60;;
59872;SDS011;50750;51.636;4.948;2023-02-15T10:17:30;17.40;;;12.10;;
59872;SDS011;50750;51.636;4.948;2023-02-15T10:25:55;15.30;;;10.80;;
59872;SDS011;50750;51.636;4.948;2023-02-15T10:28:31;14.80;;;10.60;;
59872;SDS011;50750;51.636;4.948;2023-02-15T10:31:21;14.60;;;10.40;;
59872;SDS011;50750;51.636;4.948;2023-02-15T10:39:27;16.50;;;10.90;;
59872;SDS011;50750;51.636;4.948;2023-02-15T10:45:00;14.90;;;10.10;;
59872;SDS011;50750;51.636;4.948;2023-02-15T10:55:48;14.60;;;10.50;;
59872;SDS011;50750;51.636;4.948;2023-02-15T11:01:03;15.90;;;10.00;;
59872;SDS011;50750;51.636;4.948;2023-02-15T11:03:59;16.30;;;11.10;;
59872;SDS011;50750;51.636;4.948;2023-02-15T11:06:31;15.50;;;10.10;;
59872;SDS011;50750;51.636;4.948;2023-02-15T11:09:01;13.60;;;9.90;;
59872;SDS011;50750;51.636;4.948;2023-02-15T11:11:32;19.80;;;12.10;;
59872;SDS011;50750;51.636;4.948;2023-02-15T11:14:02;14.60;;;10.60;;
59872;SDS011;50750;51.636;4.948;2023-02-15T11:16:39;16.70;;;11.60;;
59872;SDS011;50750;51.636;4.948;2023-02-15T11:19:32;14.80;;;10.20;;
59872;SDS011;50750;51.636;4.948;2023-02-15T11:22:03;14.30;;;8.80;;
59872;SDS011;50750;51.636;4.948;2023-02-15T11:24:32;12.10;;;8.60;;
59872;SDS011;50750;51.636;4.948;2023-02-15T11:27:05;13.30;;;8.30;;
59872;SDS011;50750;51.636;4.948;2023-02-15T11:29:40;13.20;;;9.20;;
59872;SDS011;50750;51.636;4.948;2023-02-15T11:32:28;14.10;;;9.20;;
59872;SDS011;50750;51.636;4.948;2023-02-15T11:34:59;13.50;;;9.80;;
59872;SDS011;50750;51.636;4.948;2023-02-15T11:37:35;17.40;;;10.20;;
59872;SDS011;50750;51.636;4.948;2023-02-15T11:40:03;13.70;;;9.20;;
59872;SDS011;50750;51.636;4.948;2023-02-15T11:42:51;15.20;;;10.00;;
59872;SDS011;50750;51.636;4.948;2023-02-15T11:45:30;14.30;;;9.90;;
59872;SDS011;50750;51.636;4.948;2023-02-15T11:48:00;14.30;;;10.00;;
59872;SDS011;50750;51.636;4.948;2023-02-15T11:50:29;15.70;;;10.40;;
59872;SDS011;50750;51.636;4.948;2023-02-15T11:52:58;15.80;;;10.20;;
59872;SDS011;50750;51.636;4.948;2023-02-15T11:55:27;13.50;;;9.30;;
59872;SDS011;50750;51.636;4.948;2023-02-15T11:57:56;14.00;;;10.20;;
59872;SDS011;50750;51.636;4.948;2023-02-15T12:00:43;16.80;;;10.50;;
59872;SDS011;50750;51.636;4.948;2023-02-15T12:05:48;16.40;;;10.10;;
59872;SDS011;50750;51.636;4.948;2023-02-15T12:08:19;14.90;;;9.80;;
59872;SDS011;50750;51.636;4.948;2023-02-15T12:13:32;15.20;;;10.40;;
59872;SDS011;50750;51.636;4.948;2023-02-15T12:15:59;15.60;;;10.70;;
59872;SDS011;50750;51.636;4.948;2023-02-15T12:18:36;13.80;;;10.00;;
59872;SDS011;50750;51.636;4.948;2023-02-15T12:21:11;13.40;;;10.00;;
59872;SDS011;50750;51.636;4.948;2023-02-15T12:23:46;15.60;;;10.30;;
59872;SDS011;50750;51.636;4.948;2023-02-15T12:26:23;15.90;;;9.70;;
59872;SDS011;50750;51.636;4.948;2023-02-15T12:28:58;15.40;;;10.70;;
59872;SDS011;50750;51.636;4.948;2023-02-15T12:31:30;14.90;;;10.00;;
59872;SDS011;50750;51.636;4.948;2023-02-15T12:34:00;14.00;;;10.20;;
59872;SDS011;50750;51.636;4.948;2023-02-15T12:37:09;16.30;;;10.60;;
59872;SDS011;50750;51.636;4.948;2023-02-15T12:39:33;14.30;;;9.90;;
59872;SDS011;50750;51.636;4.948;2023-02-15T12:45:27;14.90;;;10.00;;
59872;SDS011;50750;51.636;4.948;2023-02-15T12:48:08;14.00;;;10.30;;
59872;SDS011;50750;51.636;4.948;2023-02-15T12:50:48;16.00;;;10.60;;
59872;SDS011;50750;51.636;4.948;2023-02-15T12:56:10;14.00;;;9.20;;
59872;SDS011;50750;51.636;4.948;2023-02-15T12:58:39;13.70;;;8.80;;
59872;SDS011;50750;51.636;4.948;2023-02-15T13:03:37;14.40;;;9.10;;
59872;SDS011;50750;51.636;4.948;2023-02-15T13:06:17;16.50;;;9.40;;
59872;SDS011;50750;51.636;4.948;2023-02-15T13:08:47;14.60;;;9.10;;
59872;SDS011;50750;51.636;4.948;2023-02-15T13:11:26;15.50;;;10.00;;
59872;SDS011;50750;51.636;4.948;2023-02-15T13:14:00;14.40;;;9.30;;
59872;SDS011;50750;51.636;4.948;2023-02-15T13:18:57;14.50;;;9.80;;
59872;SDS011;50750;51.636;4.948;2023-02-15T13:21:25;15.80;;;10.20;;
59872;SDS011;50750;51.636;4.948;2023-02-15T13:27:11;16.10;;;9.50;;
59872;SDS011;50750;51.636;4.948;2023-02-15T13:29:45;15.40;;;9.60;;
59872;SDS011;50750;51.636;4.948;2023-02-15T13:34:47;16.70;;;10.60;;
59872;SDS011;50750;51.636;4.948;2023-02-15T13:37:20;15.20;;;10.50;;
59872;SDS011;50750;51.636;4.948;2023-02-15T13:40:18;15.80;;;10.80;;
59872;SDS011;50750;51.636;4.948;2023-02-15T13:42:47;15.90;;;10.50;;
59872;SDS011;50750;51.636;4.948;2023-02-15T13:56:02;15.50;;;10.30;;
59872;SDS011;50750;51.636;4.948;2023-02-15T14:18:51;11.50;;;8.30;;
59872;SDS011;50750;51.636;4.948;2023-02-15T14:24:30;12.30;;;8.30;;
59872;SDS011;50750;51.636;4.948;2023-02-15T14:29:53;13.30;;;9.30;;
59872;SDS011;50750;51.636;4.948;2023-02-15T14:32:31;13.30;;;9.60;;
59872;SDS011;50750;51.636;4.948;2023-02-15T14:35:05;14.70;;;9.20;;
59872;SDS011;50750;51.636;4.948;2023-02-15T14:46:02;14.10;;;9.30;;
59872;SDS011;50750;51.636;4.948;2023-02-15T14:48:38;14.00;;;9.10;;
59872;SDS011;50750;51.636;4.948;2023-02-15T14:51:16;13.70;;;9.00;;
59872;SDS011;50750;51.636;4.948;2023-02-15T14:54:09;14.70;;;9.30;;
59872;SDS011;50750;51.636;4.948;2023-02-15T14:56:36;13.50;;;9.30;;
59872;SDS011;50750;51.636;4.948;2023-02-15T14:59:19;16.10;;;9.50;;
59872;SDS011;50750;51.636;4.948;2023-02-15T15:04:23;13.50;;;9.80;;
59872;SDS011;50750;51.636;4.948;2023-02-15T15:09:33;15.90;;;9.90;;
59872;SDS011;50750;51.636;4.948;2023-02-15T15:12:14;15.90;;;11.50;;
59872;SDS011;50750;51.636;4.948;2023-02-15T15:14:49;16.20;;;10.10;;
59872;SDS011;50750;51.636;4.948;2023-02-15T15:20:05;15.30;;;10.50;;
59872;SDS011;50750;51.636;4.948;2023-02-15T15:22:42;18.90;;;10.80;;
59872;SDS011;50750;51.636;4.948;2023-02-15T15:27:55;15.60;;;10.60;;
59872;SDS011;50750;51.636;4.948;2023-02-15T15:32:53;15.60;;;10.30;;
59872;SDS011;50750;51.636;4.948;2023-02-15T15:44:07;14.10;;;8.70;;
59872;SDS011;50750;51.636;4.948;2023-02-15T15:49:15;13.80;;;9.80;;
59872;SDS011;50750;51.636;4.948;2023-02-15T15:51:44;15.70;;;9.60;;
59872;SDS011;50750;51.636;4.948;2023-02-15T15:54:16;15.60;;;9.20;;
59872;SDS011;50750;51.636;4.948;2023-02-15T15:56:45;16.00;;;10.40;;
59872;SDS011;50750;51.636;4.948;2023-02-15T15:59:17;13.90;;;10.20;;
59872;SDS011;50750;51.636;4.948;2023-02-15T16:01:49;15.80;;;10.70;;
59872;SDS011;50750;51.636;4.948;2023-02-15T16:04:26;14.30;;;9.90;;
59872;SDS011;50750;51.636;4.948;2023-02-15T16:06:56;13.40;;;9.30;;
59872;SDS011;50750;51.636;4.948;2023-02-15T16:09:25;16.80;;;10.20;;
59872;SDS011;50750;51.636;4.948;2023-02-15T16:11:52;15.10;;;10.20;;
59872;SDS011;50750;51.636;4.948;2023-02-15T16:16:58;16.20;;;10.40;;
59872;SDS011;50750;51.636;4.948;2023-02-15T16:21:55;14.10;;;9.50;;
59872;SDS011;50750;51.636;4.948;2023-02-15T16:29:35;13.80;;;9.40;;
59872;SDS011;50750;51.636;4.948;2023-02-15T16:32:03;15.20;;;10.40;;
59872;SDS011;50750;51.636;4.948;2023-02-15T16:34:31;15.10;;;9.70;;
59872;SDS011;50750;51.636;4.948;2023-02-15T16:37:18;13.30;;;9.30;;
59872;SDS011;50750;51.636;4.948;2023-02-15T16:39:47;16.10;;;10.60;;
59872;SDS011;50750;51.636;4.948;2023-02-15T16:42:16;15.60;;;9.70;;
59872;SDS011;50750;51.636;4.948;2023-02-15T16:44:46;14.10;;;9.30;;
59872;SDS011;50750;51.636;4.948;2023-02-15T16:47:25;13.90;;;8.50;;
59872;SDS011;50750;51.636;4.948;2023-02-15T16:49:55;14.10;;;8.80;;
59872;SDS011;50750;51.636;4.948;2023-02-15T16:52:25;14.40;;;8.50;;
59872;SDS011;50750;51.636;4.948;2023-02-15T16:54:57;12.20;;;8.50;;
59872;SDS011;50750;51.636;4.948;2023-02-15T16:57:32;13.30;;;8.80;;
59872;SDS011;50750;51.636;4.948;2023-02-15T17:00:03;15.60;;;9.90;;
59872;SDS011;50750;51.636;4.948;2023-02-15T17:02:33;16.20;;;10.10;;
59872;SDS011;50750;51.636;4.948;2023-02-15T17:07:38;12.40;;;8.70;;
59872;SDS011;50750;51.636;4.948;2023-02-15T17:10:25;14.80;;;9.10;;
59872;SDS011;50750;51.636;4.948;2023-02-15T17:12:54;12.90;;;9.00;;
59872;SDS011;50750;51.636;4.948;2023-02-15T17:17:52;14.20;;;9.00;;
59872;SDS011;50750;51.636;4.948;2023-02-15T17:20:23;13.10;;;9.20;;
59872;SDS011;50750;51.636;4.948;2023-02-15T17:22:50;13.70;;;9.10;;
59872;SDS011;50750;51.636;4.948;2023-02-15T17:25:18;13.40;;;9.50;;
59872;SDS011;50750;51.636;4.948;2023-02-15T17:27:53;13.30;;;9.30;;
59872;SDS011;50750;51.636;4.948;2023-02-15T17:30:26;13.00;;;9.10;;
59872;SDS011;50750;51.636;4.948;2023-02-15T17:32:58;13.30;;;8.90;;
59872;SDS011;50750;51.636;4.948;2023-02-15T17:35:28;14.90;;;9.60;;
59872;SDS011;50750;51.636;4.948;2023-02-15T17:38:06;13.20;;;9.20;;
59872;SDS011;50750;51.636;4.948;2023-02-15T17:40:43;15.20;;;9.90;;
59872;SDS011;50750;51.636;4.948;2023-02-15T17:43:09;13.10;;;9.70;;
59872;SDS011;50750;51.636;4.948;2023-02-15T17:45:44;15.90;;;10.10;;
59872;SDS011;50750;51.636;4.948;2023-02-15T17:48:25;13.40;;;9.00;;
59872;SDS011;50750;51.636;4.948;2023-02-15T17:51:03;12.80;;;8.50;;
59872;SDS011;50750;51.636;4.948;2023-02-15T17:53:32;11.60;;;8.00;;
59872;SDS011;50750;51.636;4.948;2023-02-15T17:55:58;14.40;;;9.00;;
59872;SDS011;50750;51.636;4.948;2023-02-15T17:58:24;13.30;;;8.80;;
59872;SDS011;50750;51.636;4.948;2023-02-15T18:00:52;12.10;;;8.40;;
59872;SDS011;50750;51.636;4.948;2023-02-15T18:06:27;13.80;;;9.10;;
59872;SDS011;50750;51.636;4.948;2023-02-15T18:09:12;12.90;;;9.00;;